sensor_id;sensor_type;location;lat;lon;timestamp;P1;durP1;ratioP1;P2;durP2;ratioP2
79145;SDS011;68792;53.338;-1.502;2023-04-28T00:00:24;2.78;;;1.80;;
79145;SDS011;68792;53.338;-1.502;2023-04-28T00:02:50;1.92;;;1.40;;
79145;SDS011;68792;53.338;-1.502;2023-04-28T00:07:41;2.40;;;1.65;;
79145;SDS011;68792;53.338;-1.502;2023-04-28T00:10:07;2.05;;;1.35;;
79145;SDS011;68792;53.338;-1.502;2023-04-28T00:12:33;2.15;;;1.63;;
79145;SDS011;68792;53.338;-1.502;2023-04-28T00:14:58;1.85;;;1.30;;
79145;SDS011;68792;53.338;-1.502;2023-04-28T00:17:23;3.03;;;2.10;;
79145;SDS011;68792;53.338;-1.502;2023-04-28T00:19:49;2.33;;;1.45;;
79145;SDS011;68792;53.338;-1.502;2023-04-28T00:22:14;1.73;;;1.23;;
79145;SDS011;68792;53.338;-1.502;2023-04-28T00:24:40;2.35;;;1.30;;
79145;SDS011;68792;53.338;-1.502;2023-04-28T00:27:06;1.92;;;1.30;;
79145;SDS011;68792;53.338;-1.502;2023-04-28T00:29:31;1.73;;;1.30;;
79145;SDS011;68792;53.338;-1.502;2023-04-28T00:31:57;2.28;;;1.50;;
79145;SDS011;68792;53.338;-1.502;2023-04-28T00:34:22;2.00;;;1.35;;
79145;SDS011;68792;53.338;-1.502;2023-04-28T00:36:48;1.92;;;1.55;;
79145;SDS011;68792;53.338;-1.502;2023-04-28T00:39:14;2.25;;;1.25;;
79145;SDS011;68792;53.338;-1.502;2023-04-28T00:41:40;1.75;;;1.17;;
79145;SDS011;68792;53.338;-1.502;2023-04-28T00:44:05;2.78;;;1.33;;
79145;SDS011;68792;53.338;-1.502;2023-04-28T00:46:31;1.60;;;1.30;;
79145;SDS011;68792;53.338;-1.502;2023-04-28T00:48:57;1.90;;;1.15;;
79145;SDS011;68792;53.338;-1.502;2023-04-28T00:51:23;1.95;;;1.30;;
79145;SDS011;68792;53.338;-1.502;2023-04-28T00:53:49;1.95;;;1.45;;
79145;SDS011;68792;53.338;-1.502;2023-04-28T00:56:14;2.13;;;1.50;;
79145;SDS011;68792;53.338;-1.502;2023-04-28T00:58:40;1.77;;;1.20;;
79145;SDS011;68792;53.338;-1.502;2023-04-28T01:01:06;1.58;;;1.33;;
79145;SDS011;68792;53.338;-1.502;2023-04-28T01:03:33;2.72;;;1.42;;
79145;SDS011;68792;53.338;-1.502;2023-04-28T01:06:01;1.60;;;1.02;;
79145;SDS011;68792;53.338;-1.502;2023-04-28T01:08:29;1.98;;;1.13;;
79145;SDS011;68792;53.338;-1.502;2023-04-28T01:10:55;1.70;;;1.10;;
79145;SDS011;68792;53.338;-1.502;2023-04-28T01:13:20;2.08;;;1.63;;
79145;SDS011;68792;53.338;-1.502;2023-04-28T01:15:46;2.50;;;1.20;;
79145;SDS011;68792;53.338;-1.502;2023-04-28T01:18:11;1.48;;;1.00;;
79145;SDS011;68792;53.338;-1.502;2023-04-28T01:20:37;1.95;;;0.90;;
79145;SDS011;68792;53.338;-1.502;2023-04-28T01:23:03;1.75;;;1.20;;
79145;SDS011;68792;53.338;-1.502;2023-04-28T01:25:28;1.38;;;1.10;;
79145;SDS011;68792;53.338;-1.502;2023-04-28T01:27:53;1.48;;;1.20;;
79145;SDS011;68792;53.338;-1.502;2023-04-28T01:30:19;3.30;;;1.85;;
79145;SDS011;68792;53.338;-1.502;2023-04-28T01:32:45;1.90;;;1.13;;
79145;SDS011;68792;53.338;-1.502;2023-04-28T01:35:10;1.42;;;1.00;;
79145;SDS011;68792;53.338;-1.502;2023-04-28T01:37:35;1.17;;;0.82;;
79145;SDS011;68792;53.338;-1.502;2023-04-28T01:40:01;1.90;;;1.13;;
79145;SDS011;68792;53.338;-1.502;2023-04-28T01:42:26;1.35;;;0.93;;
79145;SDS011;68792;53.338;-1.502;2023-04-28T01:44:52;1.83;;;0.90;;
79145;SDS011;68792;53.338;-1.502;2023-04-28T01:47:17;1.60;;;0.93;;
79145;SDS011;68792;53.338;-1.502;2023-04-28T01:52:11;1.10;;;0.73;;
79145;SDS011;68792;53.338;-1.502;2023-04-28T01:54:36;1.40;;;0.90;;
79145;SDS011;68792;53.338;-1.502;2023-04-28T01:57:02;1.17;;;0.70;;
79145;SDS011;68792;53.338;-1.502;2023-04-28T01:59:27;1.63;;;0.90;;
79145;SDS011;68792;53.338;-1.502;2023-04-28T02:01:53;1.42;;;0.93;;
79145;SDS011;68792;53.338;-1.502;2023-04-28T02:04:18;1.27;;;0.80;;
79145;SDS011;68792;53.338;-1.502;2023-04-28T02:06:43;1.50;;;0.95;;
79145;SDS011;68792;53.338;-1.502;2023-04-28T02:09:09;1.27;;;0.85;;
79145;SDS011;68792;53.338;-1.502;2023-04-28T02:11:34;1.98;;;0.70;;
79145;SDS011;68792;53.338;-1.502;2023-04-28T02:14:00;1.20;;;0.80;;
79145;SDS011;68792;53.338;-1.502;2023-04-28T02:16:25;2.05;;;1.30;;
79145;SDS011;68792;53.338;-1.502;2023-04-28T02:18:50;1.73;;;0.70;;
79145;SDS011;68792;53.338;-1.502;2023-04-28T02:21:16;1.40;;;0.93;;
79145;SDS011;68792;53.338;-1.502;2023-04-28T02:23:41;1.52;;;0.80;;
79145;SDS011;68792;53.338;-1.502;2023-04-28T02:26:07;1.20;;;0.80;;
79145;SDS011;68792;53.338;-1.502;2023-04-28T02:28:32;1.40;;;0.95;;
79145;SDS011;68792;53.338;-1.502;2023-04-28T02:31:07;1.73;;;1.30;;
79145;SDS011;68792;53.338;-1.502;2023-04-28T02:33:33;1.83;;;1.15;;
79145;SDS011;68792;53.338;-1.502;2023-04-28T02:36:00;1.60;;;1.08;;
79145;SDS011;68792;53.338;-1.502;2023-04-28T02:38:26;1.40;;;1.00;;
79145;SDS011;68792;53.338;-1.502;2023-04-28T02:43:26;1.20;;;0.88;;
79145;SDS011;68792;53.338;-1.502;2023-04-28T02:45:52;1.45;;;1.10;;
79145;SDS011;68792;53.338;-1.502;2023-04-28T02:48:18;1.50;;;1.02;;
79145;SDS011;68792;53.338;-1.502;2023-04-28T02:50:43;2.00;;;1.05;;
79145;SDS011;68792;53.338;-1.502;2023-04-28T02:53:12;2.03;;;1.10;;
79145;SDS011;68792;53.338;-1.502;2023-04-28T02:55:37;1.20;;;0.93;;
79145;SDS011;68792;53.338;-1.502;2023-04-28T02:58:03;1.50;;;0.90;;
79145;SDS011;68792;53.338;-1.502;2023-04-28T03:00:28;1.60;;;0.88;;
79145;SDS011;68792;53.338;-1.502;2023-04-28T03:02:54;1.45;;;0.88;;
79145;SDS011;68792;53.338;-1.502;2023-04-28T03:05:19;1.35;;;1.00;;
79145;SDS011;68792;53.338;-1.502;2023-04-28T03:07:45;1.38;;;0.88;;
79145;SDS011;68792;53.338;-1.502;2023-04-28T03:10:10;1.35;;;1.00;;
79145;SDS011;68792;53.338;-1.502;2023-04-28T03:12:36;1.83;;;0.80;;
79145;SDS011;68792;53.338;-1.502;2023-04-28T03:15:01;1.33;;;0.90;;
79145;SDS011;68792;53.338;-1.502;2023-04-28T03:17:27;1.90;;;1.10;;
79145;SDS011;68792;53.338;-1.502;2023-04-28T03:19:52;1.90;;;1.17;;
79145;SDS011;68792;53.338;-1.502;2023-04-28T03:22:18;1.55;;;1.00;;
79145;SDS011;68792;53.338;-1.502;2023-04-28T03:24:43;1.20;;;0.90;;
79145;SDS011;68792;53.338;-1.502;2023-04-28T03:27:09;1.92;;;1.30;;
79145;SDS011;68792;53.338;-1.502;2023-04-28T03:29:34;1.50;;;0.80;;
79145;SDS011;68792;53.338;-1.502;2023-04-28T03:32:00;1.77;;;1.02;;
79145;SDS011;68792;53.338;-1.502;2023-04-28T03:34:26;1.42;;;1.10;;
79145;SDS011;68792;53.338;-1.502;2023-04-28T03:36:51;1.55;;;0.75;;
79145;SDS011;68792;53.338;-1.502;2023-04-28T03:39:17;1.30;;;0.80;;
79145;SDS011;68792;53.338;-1.502;2023-04-28T03:41:42;2.05;;;0.90;;
79145;SDS011;68792;53.338;-1.502;2023-04-28T03:44:07;1.85;;;0.90;;
79145;SDS011;68792;53.338;-1.502;2023-04-28T03:46:33;1.27;;;0.85;;
79145;SDS011;68792;53.338;-1.502;2023-04-28T03:48:58;1.83;;;1.08;;
79145;SDS011;68792;53.338;-1.502;2023-04-28T03:51:26;1.13;;;0.80;;
79145;SDS011;68792;53.338;-1.502;2023-04-28T03:53:53;1.88;;;0.95;;
79145;SDS011;68792;53.338;-1.502;2023-04-28T03:56:18;1.58;;;0.93;;
79145;SDS011;68792;53.338;-1.502;2023-04-28T03:58:44;1.48;;;0.88;;
79145;SDS011;68792;53.338;-1.502;2023-04-28T04:01:10;1.27;;;0.70;;
79145;SDS011;68792;53.338;-1.502;2023-04-28T04:03:35;1.45;;;0.90;;
79145;SDS011;68792;53.338;-1.502;2023-04-28T04:06:00;1.50;;;0.70;;
79145;SDS011;68792;53.338;-1.502;2023-04-28T04:08:26;2.45;;;1.23;;
79145;SDS011;68792;53.338;-1.502;2023-04-28T04:10:52;1.55;;;0.90;;
79145;SDS011;68792;53.338;-1.502;2023-04-28T04:13:18;2.60;;;1.40;;
79145;SDS011;68792;53.338;-1.502;2023-04-28T04:15:44;1.95;;;1.50;;
79145;SDS011;68792;53.338;-1.502;2023-04-28T04:18:10;1.63;;;1.05;;
79145;SDS011;68792;53.338;-1.502;2023-04-28T04:20:35;1.65;;;0.95;;
79145;SDS011;68792;53.338;-1.502;2023-04-28T04:23:01;1.48;;;0.93;;
79145;SDS011;68792;53.338;-1.502;2023-04-28T04:27:52;2.20;;;1.33;;
79145;SDS011;68792;53.338;-1.502;2023-04-28T04:30:18;2.00;;;1.35;;
79145;SDS011;68792;53.338;-1.502;2023-04-28T04:32:43;1.90;;;1.40;;
79145;SDS011;68792;53.338;-1.502;2023-04-28T04:35:09;2.58;;;1.00;;
79145;SDS011;68792;53.338;-1.502;2023-04-28T04:37:34;2.15;;;1.40;;
79145;SDS011;68792;53.338;-1.502;2023-04-28T04:39:59;1.85;;;1.20;;
79145;SDS011;68792;53.338;-1.502;2023-04-28T04:42:25;2.33;;;1.55;;
79145;SDS011;68792;53.338;-1.502;2023-04-28T04:44:50;2.50;;;1.30;;
79145;SDS011;68792;53.338;-1.502;2023-04-28T04:47:16;2.55;;;1.60;;
79145;SDS011;68792;53.338;-1.502;2023-04-28T04:49:41;2.40;;;1.60;;
79145;SDS011;68792;53.338;-1.502;2023-04-28T04:52:06;2.13;;;1.38;;
79145;SDS011;68792;53.338;-1.502;2023-04-28T04:54:32;2.22;;;1.42;;
79145;SDS011;68792;53.338;-1.502;2023-04-28T04:56:57;2.10;;;1.27;;
79145;SDS011;68792;53.338;-1.502;2023-04-28T04:59:23;2.63;;;1.50;;
79145;SDS011;68792;53.338;-1.502;2023-04-28T05:01:48;2.78;;;1.92;;
79145;SDS011;68792;53.338;-1.502;2023-04-28T05:04:13;2.53;;;1.58;;
79145;SDS011;68792;53.338;-1.502;2023-04-28T05:06:39;1.80;;;1.13;;
79145;SDS011;68792;53.338;-1.502;2023-04-28T05:09:04;2.03;;;1.48;;
79145;SDS011;68792;53.338;-1.502;2023-04-28T05:11:30;1.80;;;1.35;;
79145;SDS011;68792;53.338;-1.502;2023-04-28T05:13:55;3.08;;;1.75;;
79145;SDS011;68792;53.338;-1.502;2023-04-28T05:16:20;3.35;;;1.50;;
79145;SDS011;68792;53.338;-1.502;2023-04-28T05:18:46;1.80;;;1.02;;
79145;SDS011;68792;53.338;-1.502;2023-04-28T05:21:12;2.47;;;1.20;;
79145;SDS011;68792;53.338;-1.502;2023-04-28T05:23:37;2.20;;;1.48;;
79145;SDS011;68792;53.338;-1.502;2023-04-28T05:26:03;2.25;;;1.48;;
79145;SDS011;68792;53.338;-1.502;2023-04-28T05:28:29;2.60;;;1.55;;
79145;SDS011;68792;53.338;-1.502;2023-04-28T05:30:55;2.78;;;1.38;;
79145;SDS011;68792;53.338;-1.502;2023-04-28T05:33:20;2.70;;;1.75;;
79145;SDS011;68792;53.338;-1.502;2023-04-28T05:35:48;3.13;;;1.63;;
79145;SDS011;68792;53.338;-1.502;2023-04-28T05:38:13;2.00;;;1.25;;
79145;SDS011;68792;53.338;-1.502;2023-04-28T05:40:38;2.30;;;1.27;;
79145;SDS011;68792;53.338;-1.502;2023-04-28T05:43:04;2.83;;;1.58;;
79145;SDS011;68792;53.338;-1.502;2023-04-28T05:45:29;2.30;;;1.63;;
79145;SDS011;68792;53.338;-1.502;2023-04-28T05:47:55;2.67;;;1.65;;
79145;SDS011;68792;53.338;-1.502;2023-04-28T05:50:20;2.50;;;1.63;;
79145;SDS011;68792;53.338;-1.502;2023-04-28T05:52:45;2.08;;;1.35;;
79145;SDS011;68792;53.338;-1.502;2023-04-28T05:55:11;2.75;;;1.67;;
79145;SDS011;68792;53.338;-1.502;2023-04-28T05:57:36;4.78;;;1.88;;
79145;SDS011;68792;53.338;-1.502;2023-04-28T06:00:02;2.70;;;1.48;;
79145;SDS011;68792;53.338;-1.502;2023-04-28T06:02:28;2.13;;;1.30;;
79145;SDS011;68792;53.338;-1.502;2023-04-28T06:04:53;2.65;;;1.75;;
79145;SDS011;68792;53.338;-1.502;2023-04-28T06:07:19;2.03;;;1.38;;
79145;SDS011;68792;53.338;-1.502;2023-04-28T06:09:45;3.50;;;2.13;;
79145;SDS011;68792;53.338;-1.502;2023-04-28T06:12:10;2.30;;;1.40;;
79145;SDS011;68792;53.338;-1.502;2023-04-28T06:14:36;2.55;;;1.55;;
79145;SDS011;68792;53.338;-1.502;2023-04-28T06:17:02;3.22;;;1.60;;
79145;SDS011;68792;53.338;-1.502;2023-04-28T06:19:28;3.00;;;1.67;;
79145;SDS011;68792;53.338;-1.502;2023-04-28T06:21:53;3.80;;;1.92;;
79145;SDS011;68792;53.338;-1.502;2023-04-28T06:24:19;3.22;;;1.60;;
79145;SDS011;68792;53.338;-1.502;2023-04-28T06:26:45;2.47;;;1.58;;
79145;SDS011;68792;53.338;-1.502;2023-04-28T06:29:10;2.65;;;1.73;;
79145;SDS011;68792;53.338;-1.502;2023-04-28T06:31:35;2.92;;;1.65;;
79145;SDS011;68792;53.338;-1.502;2023-04-28T06:34:01;2.25;;;1.30;;
79145;SDS011;68792;53.338;-1.502;2023-04-28T06:36:26;2.70;;;1.52;;
79145;SDS011;68792;53.338;-1.502;2023-04-28T06:38:52;2.42;;;1.40;;
79145;SDS011;68792;53.338;-1.502;2023-04-28T06:41:18;3.10;;;1.60;;
79145;SDS011;68792;53.338;-1.502;2023-04-28T06:43:43;2.65;;;1.50;;
79145;SDS011;68792;53.338;-1.502;2023-04-28T06:46:08;2.45;;;1.50;;
79145;SDS011;68792;53.338;-1.502;2023-04-28T06:48:35;2.47;;;1.40;;
79145;SDS011;68792;53.338;-1.502;2023-04-28T06:51:01;1.85;;;1.08;;
79145;SDS011;68792;53.338;-1.502;2023-04-28T06:53:26;1.92;;;1.13;;
79145;SDS011;68792;53.338;-1.502;2023-04-28T06:55:51;1.75;;;1.27;;
79145;SDS011;68792;53.338;-1.502;2023-04-28T06:58:17;2.65;;;1.02;;
79145;SDS011;68792;53.338;-1.502;2023-04-28T07:00:42;1.85;;;0.95;;
79145;SDS011;68792;53.338;-1.502;2023-04-28T07:03:08;2.17;;;1.20;;
79145;SDS011;68792;53.338;-1.502;2023-04-28T07:05:33;1.80;;;0.98;;
79145;SDS011;68792;53.338;-1.502;2023-04-28T07:08:00;2.25;;;1.13;;
79145;SDS011;68792;53.338;-1.502;2023-04-28T07:10:25;1.95;;;0.90;;
79145;SDS011;68792;53.338;-1.502;2023-04-28T07:12:51;1.55;;;0.70;;
79145;SDS011;68792;53.338;-1.502;2023-04-28T07:15:16;1.83;;;0.98;;
79145;SDS011;68792;53.338;-1.502;2023-04-28T07:17:42;1.55;;;0.85;;
79145;SDS011;68792;53.338;-1.502;2023-04-28T07:20:07;1.33;;;0.80;;
79145;SDS011;68792;53.338;-1.502;2023-04-28T07:22:33;1.70;;;0.80;;
79145;SDS011;68792;53.338;-1.502;2023-04-28T07:24:58;1.27;;;0.80;;
79145;SDS011;68792;53.338;-1.502;2023-04-28T07:27:24;3.05;;;0.98;;
79145;SDS011;68792;53.338;-1.502;2023-04-28T07:29:49;3.45;;;1.10;;
79145;SDS011;68792;53.338;-1.502;2023-04-28T07:32:15;1.75;;;1.00;;
79145;SDS011;68792;53.338;-1.502;2023-04-28T07:34:40;3.55;;;0.90;;
79145;SDS011;68792;53.338;-1.502;2023-04-28T07:37:06;3.05;;;0.65;;
79145;SDS011;68792;53.338;-1.502;2023-04-28T07:39:32;1.20;;;0.60;;
79145;SDS011;68792;53.338;-1.502;2023-04-28T07:41:58;2.97;;;1.02;;
79145;SDS011;68792;53.338;-1.502;2023-04-28T07:44:24;1.38;;;0.80;;
79145;SDS011;68792;53.338;-1.502;2023-04-28T07:46:50;2.70;;;0.60;;
79145;SDS011;68792;53.338;-1.502;2023-04-28T07:49:16;1.30;;;0.60;;
79145;SDS011;68792;53.338;-1.502;2023-04-28T07:51:41;2.88;;;0.98;;
79145;SDS011;68792;53.338;-1.502;2023-04-28T07:54:07;2.65;;;0.88;;
79145;SDS011;68792;53.338;-1.502;2023-04-28T07:56:32;1.92;;;0.80;;
79145;SDS011;68792;53.338;-1.502;2023-04-28T07:58:58;1.45;;;0.80;;
79145;SDS011;68792;53.338;-1.502;2023-04-28T08:01:23;2.03;;;0.80;;
79145;SDS011;68792;53.338;-1.502;2023-04-28T08:03:49;2.08;;;0.80;;
79145;SDS011;68792;53.338;-1.502;2023-04-28T08:24:54;3.00;;;1.25;;
79145;SDS011;68792;53.338;-1.502;2023-04-28T08:27:20;1.60;;;0.85;;
79145;SDS011;68792;53.338;-1.502;2023-04-28T08:29:45;4.00;;;1.20;;
79145;SDS011;68792;53.338;-1.502;2023-04-28T08:32:11;1.88;;;0.90;;
79145;SDS011;68792;53.338;-1.502;2023-04-28T08:34:36;2.22;;;1.13;;
79145;SDS011;68792;53.338;-1.502;2023-04-28T08:37:02;1.83;;;0.98;;
79145;SDS011;68792;53.338;-1.502;2023-04-28T08:39:28;1.58;;;0.93;;
79145;SDS011;68792;53.338;-1.502;2023-04-28T08:41:55;2.33;;;0.95;;
79145;SDS011;68792;53.338;-1.502;2023-04-28T08:44:20;2.75;;;1.20;;
79145;SDS011;68792;53.338;-1.502;2023-04-28T08:46:47;2.08;;;1.20;;
79145;SDS011;68792;53.338;-1.502;2023-04-28T08:49:14;1.67;;;0.95;;
79145;SDS011;68792;53.338;-1.502;2023-04-28T08:51:58;2.63;;;1.13;;
79145;SDS011;68792;53.338;-1.502;2023-04-28T08:54:25;2.40;;;0.90;;
79145;SDS011;68792;53.338;-1.502;2023-04-28T08:56:55;2.90;;;1.15;;
79145;SDS011;68792;53.338;-1.502;2023-04-28T09:01:49;2.77;;;1.03;;
79145;SDS011;68792;53.338;-1.502;2023-04-28T09:04:18;2.03;;;1.10;;
79145;SDS011;68792;53.338;-1.502;2023-04-28T09:06:44;3.20;;;1.30;;
79145;SDS011;68792;53.338;-1.502;2023-04-28T09:09:25;3.20;;;0.90;;
79145;SDS011;68792;53.338;-1.502;2023-04-28T09:11:54;2.22;;;1.50;;
79145;SDS011;68792;53.338;-1.502;2023-04-28T09:14:27;1.88;;;1.17;;
79145;SDS011;68792;53.338;-1.502;2023-04-28T09:16:53;2.22;;;1.10;;
79145;SDS011;68792;53.338;-1.502;2023-04-28T09:19:19;1.90;;;0.63;;
79145;SDS011;68792;53.338;-1.502;2023-04-28T09:26:59;1.73;;;1.00;;
79145;SDS011;68792;53.338;-1.502;2023-04-28T09:29:26;2.05;;;1.20;;
79145;SDS011;68792;53.338;-1.502;2023-04-28T09:31:52;2.30;;;1.02;;
79145;SDS011;68792;53.338;-1.502;2023-04-28T09:34:19;2.47;;;1.27;;
79145;SDS011;68792;53.338;-1.502;2023-04-28T09:36:47;3.30;;;1.20;;
79145;SDS011;68792;53.338;-1.502;2023-04-28T09:39:13;3.92;;;1.27;;
79145;SDS011;68792;53.338;-1.502;2023-04-28T09:44:14;2.20;;;1.20;;
79145;SDS011;68792;53.338;-1.502;2023-04-28T09:46:43;2.55;;;1.08;;
79145;SDS011;68792;53.338;-1.502;2023-04-28T09:49:10;3.30;;;1.52;;
79145;SDS011;68792;53.338;-1.502;2023-04-28T09:51:36;3.65;;;1.27;;
79145;SDS011;68792;53.338;-1.502;2023-04-28T09:54:02;2.40;;;1.40;;
79145;SDS011;68792;53.338;-1.502;2023-04-28T09:56:28;2.45;;;1.42;;
79145;SDS011;68792;53.338;-1.502;2023-04-28T09:58:55;2.30;;;0.98;;
79145;SDS011;68792;53.338;-1.502;2023-04-28T10:01:23;2.92;;;1.30;;
79145;SDS011;68792;53.338;-1.502;2023-04-28T10:03:49;1.90;;;1.00;;
79145;SDS011;68792;53.338;-1.502;2023-04-28T10:06:17;2.15;;;1.20;;
79145;SDS011;68792;53.338;-1.502;2023-04-28T10:08:43;3.28;;;1.17;;
79145;SDS011;68792;53.338;-1.502;2023-04-28T10:11:12;2.70;;;1.33;;
79145;SDS011;68792;53.338;-1.502;2023-04-28T10:13:40;3.58;;;1.02;;
79145;SDS011;68792;53.338;-1.502;2023-04-28T10:16:06;1.88;;;1.23;;
79145;SDS011;68792;53.338;-1.502;2023-04-28T10:18:32;1.80;;;0.85;;
79145;SDS011;68792;53.338;-1.502;2023-04-28T10:20:59;1.48;;;1.02;;
79145;SDS011;68792;53.338;-1.502;2023-04-28T10:29:28;1.83;;;1.23;;
79145;SDS011;68792;53.338;-1.502;2023-04-28T10:32:13;2.83;;;1.10;;
79145;SDS011;68792;53.338;-1.502;2023-04-28T10:34:40;2.25;;;1.05;;
79145;SDS011;68792;53.338;-1.502;2023-04-28T10:37:05;4.55;;;1.02;;
79145;SDS011;68792;53.338;-1.502;2023-04-28T10:39:31;5.38;;;1.20;;
79145;SDS011;68792;53.338;-1.502;2023-04-28T10:41:57;4.10;;;1.00;;
79145;SDS011;68792;53.338;-1.502;2023-04-28T10:44:43;2.58;;;1.05;;
79145;SDS011;68792;53.338;-1.502;2023-04-28T10:47:08;1.45;;;1.02;;
79145;SDS011;68792;53.338;-1.502;2023-04-28T11:03:06;2.10;;;0.70;;
79145;SDS011;68792;53.338;-1.502;2023-04-28T11:05:31;1.30;;;0.80;;
79145;SDS011;68792;53.338;-1.502;2023-04-28T11:13:46;1.00;;;0.63;;
79145;SDS011;68792;53.338;-1.502;2023-04-28T11:16:16;2.97;;;0.85;;
79145;SDS011;68792;53.338;-1.502;2023-04-28T11:18:53;2.70;;;1.20;;
79145;SDS011;68792;53.338;-1.502;2023-04-28T11:21:23;4.95;;;0.88;;
79145;SDS011;68792;53.338;-1.502;2023-04-28T11:23:50;1.63;;;1.08;;
79145;SDS011;68792;53.338;-1.502;2023-04-28T11:26:16;3.28;;;1.02;;
79145;SDS011;68792;53.338;-1.502;2023-04-28T11:28:49;1.55;;;0.90;;
79145;SDS011;68792;53.338;-1.502;2023-04-28T11:31:19;19.65;;;2.30;;
79145;SDS011;68792;53.338;-1.502;2023-04-28T11:33:50;29.50;;;3.92;;
79145;SDS011;68792;53.338;-1.502;2023-04-28T11:36:22;28.92;;;4.03;;
79145;SDS011;68792;53.338;-1.502;2023-04-28T11:38:48;16.33;;;2.47;;
79145;SDS011;68792;53.338;-1.502;2023-04-28T11:41:13;29.48;;;3.25;;
79145;SDS011;68792;53.338;-1.502;2023-04-28T11:43:39;22.23;;;2.72;;
79145;SDS011;68792;53.338;-1.502;2023-04-28T11:46:06;15.43;;;2.80;;
79145;SDS011;68792;53.338;-1.502;2023-04-28T11:48:31;19.27;;;2.42;;
79145;SDS011;68792;53.338;-1.502;2023-04-28T11:50:57;17.35;;;2.72;;
79145;SDS011;68792;53.338;-1.502;2023-04-28T11:53:41;22.25;;;2.78;;
79145;SDS011;68792;53.338;-1.502;2023-04-28T11:56:07;12.52;;;1.88;;
79145;SDS011;68792;53.338;-1.502;2023-04-28T11:58:32;14.10;;;1.92;;
79145;SDS011;68792;53.338;-1.502;2023-04-28T12:03:40;15.18;;;1.63;;
79145;SDS011;68792;53.338;-1.502;2023-04-28T12:06:07;20.55;;;2.25;;
79145;SDS011;68792;53.338;-1.502;2023-04-28T12:08:32;9.20;;;1.50;;
79145;SDS011;68792;53.338;-1.502;2023-04-28T12:11:16;20.42;;;2.17;;
79145;SDS011;68792;53.338;-1.502;2023-04-28T12:13:42;9.50;;;1.80;;
79145;SDS011;68792;53.338;-1.502;2023-04-28T12:16:07;14.52;;;2.05;;
79145;SDS011;68792;53.338;-1.502;2023-04-28T12:18:33;11.40;;;1.73;;
79145;SDS011;68792;53.338;-1.502;2023-04-28T12:21:00;10.88;;;2.00;;
79145;SDS011;68792;53.338;-1.502;2023-04-28T12:25:58;5.85;;;1.30;;
79145;SDS011;68792;53.338;-1.502;2023-04-28T12:28:34;6.60;;;1.40;;
79145;SDS011;68792;53.338;-1.502;2023-04-28T12:31:02;8.13;;;1.30;;
79145;SDS011;68792;53.338;-1.502;2023-04-28T12:33:28;2.75;;;0.98;;
79145;SDS011;68792;53.338;-1.502;2023-04-28T12:35:54;5.15;;;1.30;;
79145;SDS011;68792;53.338;-1.502;2023-04-28T12:38:21;3.28;;;1.10;;
79145;SDS011;68792;53.338;-1.502;2023-04-28T12:43:12;2.63;;;1.25;;
79145;SDS011;68792;53.338;-1.502;2023-04-28T12:45:38;5.75;;;1.23;;
79145;SDS011;68792;53.338;-1.502;2023-04-28T12:48:03;4.45;;;1.38;;
79145;SDS011;68792;53.338;-1.502;2023-04-28T12:50:29;7.05;;;1.42;;
79145;SDS011;68792;53.338;-1.502;2023-04-28T12:52:57;5.00;;;1.10;;
79145;SDS011;68792;53.338;-1.502;2023-04-28T12:55:22;3.20;;;1.10;;
79145;SDS011;68792;53.338;-1.502;2023-04-28T12:57:48;5.05;;;1.33;;
79145;SDS011;68792;53.338;-1.502;2023-04-28T13:00:13;2.50;;;1.33;;
79145;SDS011;68792;53.338;-1.502;2023-04-28T13:02:42;7.07;;;1.13;;
79145;SDS011;68792;53.338;-1.502;2023-04-28T13:05:07;2.42;;;1.02;;
79145;SDS011;68792;53.338;-1.502;2023-04-28T13:07:33;5.90;;;0.98;;
79145;SDS011;68792;53.338;-1.502;2023-04-28T13:09:58;5.00;;;1.00;;
79145;SDS011;68792;53.338;-1.502;2023-04-28T13:12:24;2.78;;;1.23;;
79145;SDS011;68792;53.338;-1.502;2023-04-28T13:14:49;3.35;;;1.02;;
79145;SDS011;68792;53.338;-1.502;2023-04-28T13:17:15;2.42;;;1.20;;
79145;SDS011;68792;53.338;-1.502;2023-04-28T13:19:40;2.30;;;0.93;;
79145;SDS011;68792;53.338;-1.502;2023-04-28T13:22:06;3.83;;;0.80;;
79145;SDS011;68792;53.338;-1.502;2023-04-28T13:24:33;2.15;;;0.70;;
79145;SDS011;68792;53.338;-1.502;2023-04-28T13:26:58;3.45;;;0.95;;
79145;SDS011;68792;53.338;-1.502;2023-04-28T13:29:24;3.22;;;0.80;;
79145;SDS011;68792;53.338;-1.502;2023-04-28T13:31:49;2.53;;;0.77;;
79145;SDS011;68792;53.338;-1.502;2023-04-28T13:34:15;3.80;;;0.90;;
79145;SDS011;68792;53.338;-1.502;2023-04-28T13:36:43;4.20;;;0.90;;
79145;SDS011;68792;53.338;-1.502;2023-04-28T13:39:08;2.42;;;0.95;;
79145;SDS011;68792;53.338;-1.502;2023-04-28T13:41:40;1.05;;;0.57;;
79145;SDS011;68792;53.338;-1.502;2023-04-28T13:44:08;2.45;;;0.70;;
79145;SDS011;68792;53.338;-1.502;2023-04-28T13:46:34;0.95;;;0.70;;
79145;SDS011;68792;53.338;-1.502;2023-04-28T13:49:00;0.88;;;0.60;;
79145;SDS011;68792;53.338;-1.502;2023-04-28T13:51:25;2.40;;;0.70;;
79145;SDS011;68792;53.338;-1.502;2023-04-28T13:53:52;2.47;;;0.40;;
79145;SDS011;68792;53.338;-1.502;2023-04-28T13:56:18;4.22;;;0.82;;
79145;SDS011;68792;53.338;-1.502;2023-04-28T13:58:43;1.90;;;0.80;;
79145;SDS011;68792;53.338;-1.502;2023-04-28T14:01:08;1.42;;;0.60;;
79145;SDS011;68792;53.338;-1.502;2023-04-28T14:03:34;1.98;;;0.60;;
79145;SDS011;68792;53.338;-1.502;2023-04-28T14:05:59;0.70;;;0.60;;
79145;SDS011;68792;53.338;-1.502;2023-04-28T14:08:25;3.35;;;0.80;;
79145;SDS011;68792;53.338;-1.502;2023-04-28T14:10:51;2.78;;;0.60;;
79145;SDS011;68792;53.338;-1.502;2023-04-28T14:13:17;1.75;;;0.63;;
79145;SDS011;68792;53.338;-1.502;2023-04-28T14:15:43;1.92;;;0.70;;
79145;SDS011;68792;53.338;-1.502;2023-04-28T14:18:09;1.00;;;0.50;;
79145;SDS011;68792;53.338;-1.502;2023-04-28T14:20:35;2.70;;;0.77;;
79145;SDS011;68792;53.338;-1.502;2023-04-28T14:23:01;2.25;;;0.40;;
79145;SDS011;68792;53.338;-1.502;2023-04-28T14:25:26;1.20;;;0.60;;
79145;SDS011;68792;53.338;-1.502;2023-04-28T14:27:52;1.80;;;0.70;;
79145;SDS011;68792;53.338;-1.502;2023-04-28T14:30:17;2.60;;;0.60;;
79145;SDS011;68792;53.338;-1.502;2023-04-28T14:32:43;2.17;;;0.80;;
79145;SDS011;68792;53.338;-1.502;2023-04-28T14:35:09;1.25;;;0.80;;
79145;SDS011;68792;53.338;-1.502;2023-04-28T14:40:01;0.90;;;0.57;;
79145;SDS011;68792;53.338;-1.502;2023-04-28T14:42:28;1.10;;;0.45;;
79145;SDS011;68792;53.338;-1.502;2023-04-28T14:44:57;1.35;;;0.75;;
79145;SDS011;68792;53.338;-1.502;2023-04-28T14:47:23;1.80;;;0.70;;
79145;SDS011;68792;53.338;-1.502;2023-04-28T14:49:50;1.63;;;0.82;;
79145;SDS011;68792;53.338;-1.502;2023-04-28T14:52:19;3.45;;;0.93;;
79145;SDS011;68792;53.338;-1.502;2023-04-28T14:54:46;1.20;;;0.50;;
79145;SDS011;68792;53.338;-1.502;2023-04-28T14:57:12;1.60;;;0.70;;
79145;SDS011;68792;53.338;-1.502;2023-04-28T14:59:37;0.60;;;0.40;;
79145;SDS011;68792;53.338;-1.502;2023-04-28T15:02:03;0.80;;;0.57;;
79145;SDS011;68792;53.338;-1.502;2023-04-28T15:04:28;0.82;;;0.63;;
79145;SDS011;68792;53.338;-1.502;2023-04-28T15:06:57;2.42;;;1.00;;
79145;SDS011;68792;53.338;-1.502;2023-04-28T15:09:24;1.42;;;0.70;;
79145;SDS011;68792;53.338;-1.502;2023-04-28T15:11:50;2.15;;;0.88;;
79145;SDS011;68792;53.338;-1.502;2023-04-28T15:14:15;1.33;;;0.60;;
79145;SDS011;68792;53.338;-1.502;2023-04-28T15:16:42;1.35;;;0.90;;
79145;SDS011;68792;53.338;-1.502;2023-04-28T15:21:33;0.85;;;0.50;;
79145;SDS011;68792;53.338;-1.502;2023-04-28T15:23:58;1.10;;;0.57;;
79145;SDS011;68792;53.338;-1.502;2023-04-28T15:26:24;1.13;;;0.50;;
79145;SDS011;68792;53.338;-1.502;2023-04-28T15:28:51;1.90;;;0.68;;
79145;SDS011;68792;53.338;-1.502;2023-04-28T15:31:17;2.42;;;0.55;;
79145;SDS011;68792;53.338;-1.502;2023-04-28T15:33:43;2.95;;;1.10;;
79145;SDS011;68792;53.338;-1.502;2023-04-28T15:36:08;1.10;;;0.60;;
79145;SDS011;68792;53.338;-1.502;2023-04-28T15:38:34;3.40;;;0.57;;
79145;SDS011;68792;53.338;-1.502;2023-04-28T15:41:00;4.22;;;0.60;;
79145;SDS011;68792;53.338;-1.502;2023-04-28T15:43:25;1.08;;;0.60;;